createdAt,value
2024-03-29T00:02:47.110Z,8.87
2024-03-29T00:07:50.112Z,8.89
2024-03-29T00:12:53.117Z,8.82
2024-03-29T00:17:56.442Z,8.89
2024-03-29T00:22:59.574Z,8.89
2024-03-29T00:28:04.720Z,8.92
2024-03-29T00:33:07.573Z,9.04
2024-03-29T00:38:10.497Z,9.13
2024-03-29T00:43:13.592Z,9.22
2024-03-29T00:48:18.778Z,9.02
2024-03-29T00:53:21.758Z,8.96
2024-03-29T00:58:24.971Z,9.11
2024-03-29T01:03:29.911Z,8.95
2024-03-29T01:08:33.227Z,9.29
2024-03-29T01:13:36.238Z,9.29
2024-03-29T01:18:40.060Z,9.21
2024-03-29T01:23:43.080Z,9.44
2024-03-29T01:28:46.104Z,9.56
2024-03-29T01:33:49.038Z,9.37
2024-03-29T01:38:55.832Z,9.59
2024-03-29T01:43:58.947Z,9.63
2024-03-29T01:49:03.164Z,9.63
2024-03-29T01:54:06.287Z,9.46
2024-03-29T01:59:16.251Z,9.40
2024-03-29T02:04:19.572Z,9.19
2024-03-29T02:09:22.548Z,9.22
2024-03-29T02:14:25.591Z,9.21
2024-03-29T02:19:28.469Z,9.42
2024-03-29T02:24:31.413Z,9.28
2024-03-29T02:29:37.020Z,9.15
2024-03-29T02:34:40.088Z,9.03
2024-03-29T02:39:43.212Z,8.93
2024-03-29T02:44:47.710Z,8.98
2024-03-29T02:49:50.715Z,8.86
2024-03-29T02:54:53.671Z,8.76
2024-03-29T02:59:56.861Z,8.78
2024-03-29T03:05:01.942Z,8.70
2024-03-29T03:10:23.584Z,8.74
2024-03-29T03:15:26.484Z,8.96
2024-03-29T03:20:31.804Z,9.01
2024-03-29T03:25:35.570Z,9.20
2024-03-29T03:30:41.674Z,9.30
2024-03-29T03:35:45.459Z,9.33
2024-03-29T03:40:48.442Z,9.45
2024-03-29T03:45:51.571Z,9.43
2024-03-29T03:50:54.481Z,9.74
2024-03-29T03:55:57.464Z,9.81
2024-03-29T04:01:07.882Z,9.72
2024-03-29T04:06:10.788Z,9.57
2024-03-29T04:11:13.842Z,9.47
2024-03-29T04:16:16.754Z,9.29
2024-03-29T04:21:19.725Z,9.14
2024-03-29T04:26:23.820Z,9.09
2024-03-29T04:31:26.697Z,8.93
2024-03-29T04:36:29.666Z,8.97
2024-03-29T04:41:35.530Z,9.02
2024-03-29T04:46:38.454Z,8.91
2024-03-29T04:51:41.418Z,8.83
2024-03-29T04:56:44.663Z,8.79
2024-03-29T05:01:56.443Z,8.92
2024-03-29T05:06:59.748Z,9.15
2024-03-29T05:12:02.707Z,8.89
2024-03-29T05:17:05.650Z,9.26
2024-03-29T05:22:08.653Z,9.27
2024-03-29T05:27:12.891Z,9.47
2024-03-29T05:32:15.806Z,9.71
2024-03-29T05:37:19.597Z,9.90
2024-03-29T05:42:22.568Z,10.17
2024-03-29T05:47:25.515Z,10.55
2024-03-29T05:52:28.501Z,11.35
2024-03-29T05:57:33.051Z,11.72
2024-03-29T06:02:36.472Z,12.57
2024-03-29T06:07:39.524Z,13.47
2024-03-29T06:12:42.415Z,14.38
2024-03-29T06:17:46.923Z,14.68
2024-03-29T06:22:50.020Z,15.22
2024-03-29T06:27:53.054Z,15.73
2024-03-29T06:32:56.188Z,15.94
2024-03-29T06:37:59.392Z,16.72
2024-03-29T06:43:04.065Z,16.98
2024-03-29T06:48:07.570Z,17.27
2024-03-29T06:53:10.588Z,17.56
2024-03-29T06:58:13.677Z,17.65
2024-03-29T07:03:18.142Z,18.02
2024-03-29T07:08:21.933Z,18.29
2024-03-29T07:13:24.968Z,18.11
2024-03-29T07:18:28.561Z,18.33
2024-03-29T07:23:31.616Z,18.43
2024-03-29T07:28:34.796Z,18.29
2024-03-29T07:33:38.801Z,17.88
2024-03-29T07:38:41.901Z,18.88
2024-03-29T07:43:57.774Z,18.43
2024-03-29T07:49:01.186Z,18.97
2024-03-29T07:54:04.294Z,19.60
2024-03-29T07:59:07.364Z,18.59
2024-03-29T08:04:10.435Z,17.76
2024-03-29T08:09:15.159Z,17.51
2024-03-29T08:14:18.536Z,19.23
2024-03-29T08:19:24.719Z,20.59
2024-03-29T08:24:28.886Z,20.10
2024-03-29T08:29:31.917Z,19.75
2024-03-29T08:34:35.913Z,20.54
2024-03-29T08:39:39.161Z,21.31
2024-03-29T08:44:44.688Z,21.55
2024-03-29T08:49:48.013Z,21.54
2024-03-29T08:54:51.029Z,20.08
2024-03-29T08:59:54.543Z,19.49
2024-03-29T09:04:59.317Z,20.24
2024-03-29T09:10:02.285Z,20.08
2024-03-29T09:15:09.943Z,19.81
2024-03-29T09:20:13.544Z,20.91
2024-03-29T09:25:16.743Z,21.61
2024-03-29T09:30:20.902Z,21.57
2024-03-29T09:35:23.995Z,21.54
2024-03-29T09:40:28.335Z,21.22
2024-03-29T09:45:36.008Z,21.23
2024-03-29T09:50:39.404Z,21.09
2024-03-29T09:55:42.597Z,20.96
2024-03-29T10:00:46.268Z,20.78
2024-03-29T10:05:49.502Z,20.64
2024-03-29T10:10:53.183Z,20.65
2024-03-29T10:15:57.405Z,20.69
2024-03-29T10:21:04.391Z,20.18
2024-03-29T10:26:08.179Z,20.10
2024-03-29T10:31:12.797Z,20.32
2024-03-29T10:36:15.842Z,20.40
2024-03-29T10:41:19.244Z,20.47
2024-03-29T10:46:23.081Z,19.99
2024-03-29T10:51:26.174Z,20.48
2024-03-29T10:56:30.341Z,20.39
2024-03-29T11:01:34.388Z,19.71
2024-03-29T11:06:39.276Z,19.97
2024-03-29T11:11:49.516Z,20.05
2024-03-29T11:16:57.377Z,20.40
2024-03-29T11:22:01.584Z,20.73
2024-03-29T11:27:11.899Z,20.89
2024-03-29T11:32:15.942Z,20.80
2024-03-29T11:37:19.536Z,20.52
2024-03-29T11:42:46.776Z,20.54
2024-03-29T11:47:50.974Z,20.45
2024-03-29T11:52:54.304Z,20.49
2024-03-29T11:57:57.153Z,20.48
2024-03-29T12:03:00.201Z,20.59
2024-03-29T12:08:04.309Z,21.04
2024-03-29T12:13:07.747Z,20.29
2024-03-29T12:18:12.417Z,20.34
2024-03-29T12:23:15.444Z,20.60
2024-03-29T12:28:18.558Z,20.66
2024-03-29T12:33:22.809Z,20.88
2024-03-29T12:38:26.178Z,21.28
2024-03-29T12:43:29.606Z,21.18
2024-03-29T12:48:35.028Z,21.20
2024-03-29T12:53:40.241Z,21.44
2024-03-29T12:58:43.792Z,21.67
2024-03-29T13:03:46.820Z,21.40
2024-03-29T13:08:51.014Z,21.61
2024-03-29T13:13:54.606Z,21.62
2024-03-29T13:18:57.790Z,21.70
2024-03-29T13:24:00.856Z,21.82
2024-03-29T13:29:04.097Z,21.79
2024-03-29T13:34:13.287Z,22.12
2024-03-29T13:39:17.354Z,22.24
2024-03-29T13:44:20.699Z,21.86
2024-03-29T13:49:24.106Z,21.99
2024-03-29T13:54:27.029Z,22.28
2024-03-29T13:59:30.252Z,22.00
2024-03-29T14:04:33.264Z,21.77
2024-03-29T14:09:37.175Z,21.48
2024-03-29T14:14:40.652Z,21.29
2024-03-29T14:19:43.579Z,21.45
2024-03-29T14:24:46.630Z,21.37
2024-03-29T14:29:49.651Z,21.52
2024-03-29T14:34:53.724Z,21.50
2024-03-29T14:39:56.747Z,21.15
2024-03-29T14:44:59.866Z,21.09
2024-03-29T14:50:05.964Z,21.05
2024-03-29T14:55:09.159Z,20.87
2024-03-29T15:00:12.600Z,20.77
2024-03-29T15:05:15.605Z,20.81
2024-03-29T15:10:20.328Z,20.47
2024-03-29T15:15:23.384Z,20.24
2024-03-29T15:20:26.446Z,20.44
2024-03-29T15:25:29.566Z,20.49
2024-03-29T15:30:36.196Z,20.14
2024-03-29T15:35:39.538Z,20.17
2024-03-29T15:40:42.721Z,19.92
2024-03-29T15:45:46.166Z,19.87
2024-03-29T15:50:49.231Z,19.97
2024-03-29T15:55:52.707Z,19.95
2024-03-29T16:00:56.866Z,19.96
2024-03-29T16:05:59.864Z,20.13
2024-03-29T16:11:09.220Z,20.00
2024-03-29T16:16:12.532Z,19.79
2024-03-29T16:21:15.757Z,19.45
2024-03-29T16:26:18.867Z,19.50
2024-03-29T16:31:21.889Z,19.41
2024-03-29T16:36:25.219Z,19.32
2024-03-29T16:41:28.621Z,19.14
2024-03-29T16:46:31.599Z,18.88
2024-03-29T16:51:34.548Z,18.83
2024-03-29T16:56:37.692Z,18.73
2024-03-29T17:01:40.622Z,18.68
2024-03-29T17:06:43.593Z,18.36
2024-03-29T17:11:46.593Z,18.32
2024-03-29T17:16:51.309Z,18.06
2024-03-29T17:21:54.950Z,17.95
2024-03-29T17:26:59.242Z,17.82
2024-03-29T17:32:11.191Z,17.79
2024-03-29T17:37:16.492Z,17.94
2024-03-29T17:42:19.666Z,18.05
2024-03-29T17:47:23.422Z,17.88
2024-03-29T17:52:26.379Z,17.86
2024-03-29T17:57:29.331Z,17.95
2024-03-29T18:02:32.250Z,17.91
2024-03-29T18:07:35.328Z,17.96
2024-03-29T18:12:38.444Z,17.76
2024-03-29T18:17:41.649Z,18.07
2024-03-29T18:22:44.564Z,18.16
2024-03-29T18:27:47.529Z,17.87
2024-03-29T18:32:50.414Z,17.92
2024-03-29T18:37:53.428Z,18.00
2024-03-29T18:42:57.849Z,17.84
2024-03-29T18:48:00.827Z,17.79
2024-03-29T18:53:04.065Z,17.77
2024-03-29T18:58:06.983Z,17.63
2024-03-29T19:03:12.250Z,17.55
2024-03-29T19:08:15.390Z,17.48
2024-03-29T19:13:18.482Z,17.47
2024-03-29T19:18:21.576Z,17.58
2024-03-29T19:23:24.651Z,17.63
2024-03-29T19:28:28.391Z,17.74
2024-03-29T19:33:31.370Z,17.76
2024-03-29T19:38:34.424Z,17.94
2024-03-29T19:43:37.650Z,18.03
2024-03-29T19:48:40.600Z,18.02
2024-03-29T19:53:43.599Z,18.12
2024-03-29T19:58:46.760Z,18.41
2024-03-29T20:03:49.778Z,18.28
2024-03-29T20:08:52.722Z,18.39
2024-03-29T20:13:55.839Z,18.31
2024-03-29T20:19:02.948Z,18.40
2024-03-29T20:24:07.090Z,18.55
2024-03-29T20:29:10.179Z,18.53
2024-03-29T20:34:13.232Z,18.46
2024-03-29T20:39:17.331Z,18.37
2024-03-29T20:44:20.470Z,18.21
2024-03-29T20:49:23.582Z,18.02
2024-03-29T20:54:28.687Z,17.94
2024-03-29T20:59:34.675Z,18.05
2024-03-29T21:04:55.888Z,18.06
2024-03-29T21:09:58.758Z,18.13
2024-03-29T21:15:03.006Z,18.16
2024-03-29T21:20:10.746Z,18.11
2024-03-29T21:25:14.069Z,17.93
2024-03-29T21:30:19.501Z,17.86
2024-03-29T21:35:24.017Z,17.71
2024-03-29T21:40:27.605Z,17.39
2024-03-29T21:45:31.014Z,17.05
2024-03-29T21:50:33.893Z,16.87
2024-03-29T21:55:36.897Z,16.63
2024-03-29T22:00:39.823Z,16.83
2024-03-29T22:05:43.747Z,16.51
2024-03-29T22:10:46.754Z,16.39
2024-03-29T22:15:49.696Z,16.47
2024-03-29T22:20:53.266Z,16.45
2024-03-29T22:25:56.200Z,16.48
2024-03-29T22:30:59.247Z,16.67
2024-03-29T22:36:02.986Z,16.85
2024-03-29T22:41:05.901Z,17.08
2024-03-29T22:46:10.054Z,17.15
2024-03-29T22:51:13.153Z,17.13
2024-03-29T22:56:16.053Z,17.16
2024-03-29T23:01:18.958Z,17.29
2024-03-29T23:06:22.154Z,17.48
2024-03-29T23:11:25.095Z,17.54
2024-03-29T23:16:28.423Z,17.52
2024-03-29T23:21:31.733Z,17.12
2024-03-29T23:26:34.906Z,17.11
2024-03-29T23:31:37.770Z,16.99
2024-03-29T23:36:40.678Z,16.85
2024-03-29T23:41:43.538Z,16.80
2024-03-29T23:46:46.433Z,16.80
2024-03-29T23:51:49.457Z,16.65
2024-03-29T23:56:52.380Z,16.69
